createdAt,value
2018-08-19T00:02:21.225Z,23.50
2018-08-19T00:05:05.455Z,23.50
2018-08-19T00:07:34.719Z,23.70
2018-08-19T00:10:05.216Z,23.70
2018-08-19T00:12:38.845Z,23.60
2018-08-19T00:15:08.084Z,23.50
2018-08-19T00:17:37.359Z,23.30
2018-08-19T00:20:08.862Z,23.20
2018-08-19T00:22:38.303Z,23.10
2018-08-19T00:25:07.690Z,23.00
2018-08-19T00:27:38.227Z,23.00
2018-08-19T00:30:08.871Z,23.10
2018-08-19T00:32:38.291Z,23.30
2018-08-19T00:35:07.846Z,23.30
2018-08-19T00:37:37.043Z,23.20
2018-08-19T00:40:10.747Z,23.10
2018-08-19T00:42:42.258Z,23.10
2018-08-19T00:45:11.535Z,22.90
2018-08-19T00:47:40.719Z,22.70
2018-08-19T00:50:09.931Z,22.60
2018-08-19T00:52:39.670Z,22.60
2018-08-19T00:55:08.846Z,22.60
2018-08-19T00:57:40.807Z,22.70
2018-08-19T01:00:10.039Z,22.60
2018-08-19T01:02:39.239Z,22.50
2018-08-19T01:05:08.491Z,22.60
2018-08-19T01:07:37.735Z,22.70
2018-08-19T01:10:06.993Z,22.60
2018-08-19T01:12:36.563Z,22.50
2018-08-19T01:15:08.610Z,22.30
2018-08-19T01:17:40.980Z,22.40
2018-08-19T01:20:11.848Z,22.40
2018-08-19T01:22:42.441Z,22.40
2018-08-19T01:25:13.750Z,22.30
2018-08-19T01:27:43.409Z,22.30
2018-08-19T01:30:14.983Z,22.40
2018-08-19T01:32:44.591Z,22.50
2018-08-19T01:35:15.279Z,22.50
2018-08-19T01:37:44.563Z,22.40
2018-08-19T01:40:17.467Z,22.40
2018-08-19T01:42:47.692Z,22.30
2018-08-19T01:45:16.937Z,22.20
2018-08-19T01:47:46.475Z,22.10
2018-08-19T01:50:17.135Z,22.10
2018-08-19T01:52:48.924Z,22.30
2018-08-19T01:55:19.883Z,22.20
2018-08-19T01:57:50.276Z,22.00
2018-08-19T02:00:19.756Z,21.90
2018-08-19T02:02:59.668Z,21.80
2018-08-19T02:05:28.895Z,21.80
2018-08-19T02:07:59.820Z,21.70
2018-08-19T02:10:29.905Z,21.70
2018-08-19T02:12:59.580Z,21.70
2018-08-19T02:15:29.892Z,21.70
2018-08-19T02:18:05.677Z,21.60
2018-08-19T02:20:39.042Z,21.60
2018-08-19T02:23:09.911Z,21.50
2018-08-19T02:25:45.507Z,21.60
2018-08-19T02:28:19.151Z,21.60
2018-08-19T02:30:53.848Z,21.50
2018-08-19T02:33:24.214Z,21.50
2018-08-19T02:36:00.766Z,21.60
2018-08-19T02:38:30.007Z,21.60
2018-08-19T02:40:59.233Z,21.60
2018-08-19T02:43:30.044Z,21.50
2018-08-19T02:45:59.271Z,21.50
2018-08-19T02:48:42.683Z,21.40
2018-08-19T02:51:14.887Z,21.30
2018-08-19T02:53:46.135Z,21.20
2018-08-19T02:56:16.067Z,21.20
2018-08-19T02:58:46.310Z,21.00
2018-08-19T03:01:16.580Z,20.80
2018-08-19T03:03:45.787Z,20.70
2018-08-19T03:06:15.028Z,20.80
2018-08-19T03:08:49.699Z,21.00
2018-08-19T03:11:20.751Z,21.20
2018-08-19T03:13:49.951Z,21.20
2018-08-19T03:16:19.280Z,21.30
2018-08-19T03:18:50.620Z,21.30
2018-08-19T03:21:20.546Z,21.20
2018-08-19T03:23:50.666Z,21.00
2018-08-19T03:26:19.875Z,20.90
2018-08-19T03:28:49.381Z,20.70
2018-08-19T03:31:18.769Z,20.70
2018-08-19T03:33:47.959Z,20.80
2018-08-19T03:36:17.161Z,20.90
2018-08-19T03:38:46.334Z,20.80
2018-08-19T03:41:15.664Z,20.70
2018-08-19T03:43:51.642Z,20.50
2018-08-19T03:46:21.324Z,20.40
2018-08-19T03:48:50.932Z,20.50
2018-08-19T03:51:20.133Z,20.50
2018-08-19T03:53:49.511Z,20.40
2018-08-19T03:56:24.112Z,20.40
2018-08-19T03:58:57.347Z,20.50
2018-08-19T04:01:41.755Z,20.60
2018-08-19T04:04:12.380Z,20.50
2018-08-19T04:06:41.643Z,20.30
2018-08-19T04:09:10.843Z,20.30
2018-08-19T04:11:40.041Z,20.30
2018-08-19T04:14:25.564Z,20.10
2018-08-19T04:16:56.227Z,20.00
2018-08-19T04:19:26.689Z,19.90
2018-08-19T04:21:59.204Z,19.80
2018-08-19T04:24:29.075Z,19.90
2018-08-19T04:26:58.557Z,19.80
2018-08-19T04:29:28.491Z,19.70
2018-08-19T04:31:57.720Z,19.60
2018-08-19T04:34:26.879Z,19.60
2018-08-19T04:36:56.350Z,19.60
2018-08-19T04:39:25.707Z,19.60
2018-08-19T04:41:55.073Z,19.60
2018-08-19T04:44:25.054Z,19.50
2018-08-19T04:46:54.267Z,19.40
2018-08-19T04:49:23.455Z,19.40
2018-08-19T04:51:52.633Z,19.30
2018-08-19T04:54:21.919Z,19.40
2018-08-19T04:56:51.148Z,19.40
2018-08-19T04:59:20.334Z,19.40
2018-08-19T05:01:50.051Z,19.40
2018-08-19T05:04:19.219Z,19.40
2018-08-19T05:06:48.426Z,19.60
2018-08-19T05:09:17.699Z,19.70
2018-08-19T05:11:46.871Z,19.70
2018-08-19T05:14:16.050Z,19.90
2018-08-19T05:16:45.268Z,20.10
2018-08-19T05:19:15.236Z,20.10
2018-08-19T05:21:44.419Z,20.00
2018-08-19T05:24:14.044Z,19.90
2018-08-19T05:26:43.347Z,19.90
2018-08-19T05:29:13.127Z,20.10
2018-08-19T05:31:58.571Z,20.00
2018-08-19T05:34:33.974Z,19.90
2018-08-19T05:37:03.659Z,19.90
2018-08-19T05:39:32.959Z,19.90
2018-08-19T05:42:08.721Z,20.00
2018-08-19T05:44:39.249Z,20.00
2018-08-19T05:47:11.951Z,20.00
2018-08-19T05:49:42.456Z,20.00
2018-08-19T05:52:19.207Z,20.00
2018-08-19T05:55:02.877Z,20.00
2018-08-19T05:57:33.696Z,20.10
2018-08-19T06:00:08.175Z,20.00
2018-08-19T06:02:42.369Z,20.10
2018-08-19T06:05:11.566Z,20.10
2018-08-19T06:07:40.812Z,20.20
2018-08-19T06:10:11.180Z,20.20
2018-08-19T06:12:40.960Z,20.20
2018-08-19T06:15:10.183Z,20.20
2018-08-19T06:17:40.756Z,20.20
2018-08-19T06:20:10.064Z,20.20
2018-08-19T06:22:41.134Z,20.10
2018-08-19T06:25:11.785Z,20.10
2018-08-19T06:27:45.092Z,20.10
2018-08-19T06:30:15.199Z,20.20
2018-08-19T06:32:44.481Z,20.40
2018-08-19T06:35:14.157Z,20.40
2018-08-19T06:37:43.370Z,20.40
2018-08-19T06:40:14.984Z,20.40
2018-08-19T06:42:44.446Z,20.50
2018-08-19T06:45:14.575Z,20.50
2018-08-19T06:47:43.872Z,20.60
2018-08-19T06:50:27.073Z,20.70
2018-08-19T06:52:56.955Z,20.80
2018-08-19T06:55:26.419Z,21.00
2018-08-19T06:57:57.548Z,21.00
2018-08-19T07:00:31.018Z,21.00
2018-08-19T07:03:01.628Z,21.00
2018-08-19T07:05:31.324Z,21.00
2018-08-19T07:08:01.049Z,21.00
2018-08-19T07:10:37.070Z,21.20
2018-08-19T07:13:08.776Z,21.30
2018-08-19T07:15:39.310Z,21.40
2018-08-19T07:18:10.533Z,21.50
2018-08-19T07:20:40.831Z,21.60
2018-08-19T07:23:10.579Z,21.60
2018-08-19T07:25:43.587Z,21.70
2018-08-19T07:28:13.902Z,21.80
2018-08-19T07:30:43.567Z,21.90
2018-08-19T07:33:13.303Z,21.80
2018-08-19T07:35:42.507Z,21.80
2018-08-19T07:38:11.731Z,21.80
2018-08-19T07:40:40.933Z,21.90
2018-08-19T07:43:10.112Z,21.90
2018-08-19T07:45:39.987Z,21.90
2018-08-19T07:48:09.823Z,21.90
2018-08-19T07:50:39.008Z,22.00
2018-08-19T07:53:08.180Z,22.10
2018-08-19T07:55:37.495Z,22.30
2018-08-19T07:58:06.736Z,22.50
2018-08-19T08:00:38.887Z,22.60
2018-08-19T08:03:08.228Z,22.70
2018-08-19T08:05:43.531Z,22.70
2018-08-19T08:08:12.750Z,22.70
2018-08-19T08:10:42.215Z,22.70
2018-08-19T08:13:12.563Z,22.80
2018-08-19T08:15:59.231Z,22.90
2018-08-19T08:18:28.456Z,22.90
2018-08-19T08:21:02.857Z,23.00
2018-08-19T08:23:32.339Z,23.10
2018-08-19T08:26:01.531Z,23.10
2018-08-19T08:28:30.727Z,23.20
2018-08-19T08:30:59.944Z,23.30
2018-08-19T08:33:29.407Z,23.40
2018-08-19T08:35:58.893Z,23.50
2018-08-19T08:38:28.104Z,23.60
2018-08-19T08:40:57.484Z,23.70
2018-08-19T08:43:26.655Z,23.70
2018-08-19T08:45:57.475Z,23.70
2018-08-19T08:48:27.108Z,23.80
2018-08-19T08:50:56.717Z,23.90
2018-08-19T08:53:27.820Z,24.00
2018-08-19T08:55:57.051Z,24.10
2018-08-19T08:58:26.306Z,24.20
2018-08-19T09:00:55.552Z,24.30
2018-08-19T09:03:24.891Z,24.40
2018-08-19T09:05:54.138Z,24.50
2018-08-19T09:08:23.699Z,24.60
2018-08-19T09:10:53.070Z,24.60
2018-08-19T09:13:22.422Z,24.70
2018-08-19T09:15:51.667Z,24.80
2018-08-19T09:18:20.883Z,24.90
2018-08-19T09:20:50.289Z,24.90
2018-08-19T09:23:19.725Z,25.00
2018-08-19T09:25:51.007Z,25.10
2018-08-19T09:28:20.563Z,25.20
2018-08-19T09:30:49.760Z,25.20
2018-08-19T09:33:18.941Z,25.30
2018-08-19T09:35:48.150Z,25.50
2018-08-19T09:38:19.740Z,25.50
2018-08-19T09:40:49.406Z,25.60
2018-08-19T09:43:18.893Z,25.60
2018-08-19T09:45:48.612Z,25.70
2018-08-19T09:48:18.963Z,25.70
2018-08-19T09:50:48.187Z,25.80
2018-08-19T09:53:17.419Z,25.90
2018-08-19T09:55:52.864Z,26.00
2018-08-19T09:58:22.747Z,26.10
2018-08-19T10:00:57.134Z,26.20
2018-08-19T10:03:26.547Z,26.20
2018-08-19T10:05:55.748Z,26.30
2018-08-19T10:08:25.350Z,26.40
2018-08-19T10:10:54.526Z,26.50
2018-08-19T10:13:23.750Z,26.50
2018-08-19T10:15:52.971Z,26.50
2018-08-19T10:18:22.358Z,26.50
2018-08-19T10:20:51.523Z,26.70
2018-08-19T10:23:24.388Z,26.90
2018-08-19T10:25:53.911Z,27.00
2018-08-19T10:28:23.099Z,27.20
2018-08-19T10:30:58.269Z,27.30
2018-08-19T10:33:27.643Z,27.40
2018-08-19T10:36:00.031Z,27.40
2018-08-19T10:38:29.320Z,27.50
2018-08-19T10:41:03.727Z,27.60
2018-08-19T10:43:32.992Z,27.80
2018-08-19T10:46:02.180Z,27.90
2018-08-19T10:48:32.148Z,28.10
2018-08-19T10:51:02.619Z,28.40
2018-08-19T10:53:31.806Z,28.80
2018-08-19T10:56:02.340Z,29.30
2018-08-19T10:58:31.682Z,30.00
2018-08-19T11:01:00.806Z,30.60
2018-08-19T11:03:31.035Z,31.50
2018-08-19T11:06:00.262Z,32.30
2018-08-19T11:08:29.576Z,32.90
2018-08-19T11:11:00.273Z,33.10
2018-08-19T11:13:29.496Z,33.80
2018-08-19T11:15:59.075Z,34.30
2018-08-19T11:18:41.855Z,34.60
2018-08-19T11:21:13.223Z,35.10
2018-08-19T11:23:44.557Z,35.60
2018-08-19T11:26:14.087Z,35.60
2018-08-19T11:28:46.028Z,35.60
2018-08-19T11:31:21.646Z,35.50
2018-08-19T11:33:52.679Z,35.90
2018-08-19T11:36:35.015Z,36.00
2018-08-19T11:39:11.584Z,36.20
2018-08-19T11:41:40.774Z,36.60
2018-08-19T11:44:13.179Z,36.50
2018-08-19T11:46:42.435Z,36.70
2018-08-19T11:49:16.564Z,37.10
2018-08-19T11:51:56.606Z,37.30
2018-08-19T11:54:26.607Z,37.60
2018-08-19T11:57:06.569Z,37.40
2018-08-19T11:59:41.368Z,37.10
2018-08-19T12:02:21.098Z,37.50
2018-08-19T12:04:50.360Z,37.80
2018-08-19T12:07:20.023Z,38.30
2018-08-19T12:09:54.727Z,38.40
2018-08-19T12:12:40.576Z,38.60
2018-08-19T12:15:10.784Z,38.70
2018-08-19T12:17:39.980Z,39.30
2018-08-19T12:20:09.650Z,39.90
2018-08-19T12:22:40.494Z,40.70
2018-08-19T12:25:09.676Z,40.90
2018-08-19T12:27:39.064Z,40.60
2018-08-19T12:30:15.572Z,40.90
2018-08-19T12:32:44.844Z,41.40
2018-08-19T12:35:16.482Z,41.90
2018-08-19T12:37:45.691Z,42.20
2018-08-19T12:40:14.916Z,42.70
2018-08-19T12:42:49.504Z,43.10
2018-08-19T12:45:19.034Z,43.20
2018-08-19T12:47:48.255Z,43.10
2018-08-19T12:50:17.931Z,43.00
2018-08-19T12:52:47.408Z,43.10
2018-08-19T12:55:16.936Z,43.50
2018-08-19T12:57:49.861Z,43.90
2018-08-19T13:00:26.222Z,44.00
2018-08-19T13:02:55.700Z,44.10
2018-08-19T13:05:24.910Z,44.20
2018-08-19T13:07:54.291Z,44.10
2018-08-19T13:10:24.262Z,44.40
2018-08-19T13:12:54.879Z,44.50
2018-08-19T13:15:25.876Z,44.70
2018-08-19T13:17:55.742Z,44.70
2018-08-19T13:20:25.276Z,44.90
2018-08-19T13:23:03.778Z,45.00
2018-08-19T13:25:34.492Z,45.00
2018-08-19T13:28:04.051Z,44.80
2018-08-19T13:30:34.387Z,44.90
2018-08-19T13:33:04.683Z,44.90
2018-08-19T13:35:33.947Z,44.90
2018-08-19T13:38:03.292Z,44.60
2018-08-19T13:40:32.584Z,44.10
2018-08-19T13:43:01.897Z,43.60
2018-08-19T13:45:31.504Z,43.90
2018-08-19T13:48:02.011Z,44.00
2018-08-19T13:50:31.559Z,43.40
2018-08-19T13:53:00.863Z,42.90
2018-08-19T13:55:30.055Z,43.90
2018-08-19T13:57:59.714Z,45.20
2018-08-19T14:00:33.380Z,46.20
2018-08-19T14:03:03.035Z,46.70
2018-08-19T14:05:32.300Z,47.20
2018-08-19T14:08:01.649Z,46.50
2018-08-19T14:10:30.955Z,45.30
2018-08-19T14:13:00.173Z,44.90
2018-08-19T14:15:29.465Z,44.20
2018-08-19T14:17:58.859Z,43.50
2018-08-19T14:20:28.064Z,43.90
2018-08-19T14:22:58.309Z,44.60
2018-08-19T14:25:27.555Z,44.60
2018-08-19T14:27:57.287Z,44.40
2018-08-19T14:30:27.675Z,44.40
2018-08-19T14:32:58.044Z,43.90
2018-08-19T14:35:27.263Z,44.20
2018-08-19T14:37:57.519Z,44.90
2018-08-19T14:40:28.343Z,45.00
2018-08-19T14:42:57.648Z,45.10
2018-08-19T14:45:26.903Z,44.70
2018-08-19T14:47:56.212Z,44.30
2018-08-19T14:50:27.688Z,44.00
2018-08-19T14:52:57.453Z,43.90
2018-08-19T14:55:26.874Z,44.20
2018-08-19T14:57:56.192Z,45.00
2018-08-19T15:00:26.467Z,45.30
2018-08-19T15:02:56.950Z,44.60
2018-08-19T15:05:26.142Z,43.70
2018-08-19T15:07:56.478Z,43.00
2018-08-19T15:10:26.103Z,42.30
2018-08-19T15:12:55.429Z,41.60
2018-08-19T15:15:24.775Z,41.30
2018-08-19T15:18:02.507Z,41.20
2018-08-19T15:20:33.162Z,40.70
2018-08-19T15:23:13.859Z,39.90
2018-08-19T15:25:43.842Z,40.00
2018-08-19T15:28:13.278Z,39.70
2018-08-19T15:30:43.199Z,39.30
2018-08-19T15:33:14.111Z,38.80
2018-08-19T15:35:43.774Z,38.60
2018-08-19T15:38:13.649Z,38.40
2018-08-19T15:40:45.959Z,38.30
2018-08-19T15:43:16.239Z,38.70
2018-08-19T15:45:46.770Z,38.70
2018-08-19T15:48:16.273Z,38.80
2018-08-19T15:50:45.899Z,39.50
2018-08-19T15:53:17.437Z,40.60
2018-08-19T15:55:47.012Z,41.80
2018-08-19T15:58:16.262Z,42.60
2018-08-19T16:00:45.651Z,42.60
2018-08-19T16:03:14.955Z,42.30
2018-08-19T16:05:44.223Z,42.30
2018-08-19T16:08:14.035Z,42.00
2018-08-19T16:10:44.327Z,41.40
2018-08-19T16:13:14.884Z,41.00
2018-08-19T16:15:44.099Z,41.10
2018-08-19T16:18:13.332Z,41.20
2018-08-19T16:20:47.993Z,41.40
2018-08-19T16:23:17.995Z,41.70
2018-08-19T16:25:47.507Z,41.80
2018-08-19T16:28:18.723Z,42.00
2018-08-19T16:30:49.195Z,41.80
2018-08-19T16:33:18.794Z,41.70
2018-08-19T16:35:48.627Z,41.30
2018-08-19T16:38:18.019Z,41.20
2018-08-19T16:40:47.818Z,41.30
2018-08-19T16:43:17.157Z,41.60
2018-08-19T16:45:46.520Z,41.50
2018-08-19T16:48:20.214Z,41.20
2018-08-19T16:50:50.298Z,41.10
2018-08-19T16:53:21.783Z,41.00
2018-08-19T16:55:50.991Z,40.60
2018-08-19T16:58:20.363Z,40.30
2018-08-19T17:00:49.614Z,39.70
2018-08-19T17:03:27.513Z,39.40
2018-08-19T17:05:57.443Z,39.50
2018-08-19T17:08:26.643Z,39.60
2018-08-19T17:10:56.232Z,39.50
2018-08-19T17:13:25.438Z,39.30
2018-08-19T17:15:54.730Z,38.90
2018-08-19T17:18:25.215Z,38.60
2018-08-19T17:20:54.439Z,38.30
2018-08-19T17:23:24.599Z,37.70
2018-08-19T17:25:54.067Z,37.30
2018-08-19T17:28:25.139Z,36.80
2018-08-19T17:30:55.136Z,36.50
2018-08-19T17:33:30.076Z,36.20
2018-08-19T17:35:59.336Z,35.60
2018-08-19T17:38:33.723Z,35.10
2018-08-19T17:41:03.425Z,34.70
2018-08-19T17:43:38.160Z,34.40
2018-08-19T17:46:14.227Z,34.10
2018-08-19T17:48:44.315Z,33.80
2018-08-19T17:51:27.214Z,33.60
2018-08-19T17:53:56.431Z,33.50
2018-08-19T17:56:25.953Z,33.30
2018-08-19T17:58:55.551Z,33.20
2018-08-19T18:01:25.279Z,33.10
2018-08-19T18:03:54.656Z,32.90
2018-08-19T18:06:24.097Z,32.80
2018-08-19T18:08:53.899Z,32.70
2018-08-19T18:11:23.195Z,32.60
2018-08-19T18:13:52.397Z,32.50
2018-08-19T18:16:21.936Z,32.40
2018-08-19T18:18:51.197Z,32.30
2018-08-19T18:21:20.406Z,32.10
2018-08-19T18:23:50.303Z,32.10
2018-08-19T18:26:20.598Z,31.90
2018-08-19T18:28:51.111Z,31.80
2018-08-19T18:31:21.775Z,31.70
2018-08-19T18:34:03.347Z,31.60
2018-08-19T18:36:33.789Z,31.50
2018-08-19T18:39:06.879Z,31.40
2018-08-19T18:41:37.671Z,31.40
2018-08-19T18:44:08.269Z,31.30
2018-08-19T18:46:37.764Z,31.30
2018-08-19T18:49:11.124Z,31.20
2018-08-19T18:51:41.878Z,31.00
2018-08-19T18:54:20.051Z,31.00
2018-08-19T18:56:50.895Z,30.90
2018-08-19T18:59:20.612Z,30.80
2018-08-19T19:01:49.820Z,30.70
2018-08-19T19:04:19.212Z,30.50
2018-08-19T19:06:48.643Z,30.50
2018-08-19T19:09:18.095Z,30.40
2018-08-19T19:11:50.340Z,30.30
2018-08-19T19:14:20.538Z,30.30
2018-08-19T19:16:53.814Z,30.20
2018-08-19T19:19:23.060Z,30.10
2018-08-19T19:22:01.500Z,30.00
2018-08-19T19:24:34.898Z,29.80
2018-08-19T19:27:05.973Z,29.70
2018-08-19T19:29:35.183Z,29.70
2018-08-19T19:32:13.697Z,29.60
2018-08-19T19:34:42.884Z,29.60
2018-08-19T19:37:12.599Z,29.50
2018-08-19T19:39:41.863Z,29.40
2018-08-19T19:42:12.431Z,29.30
2018-08-19T19:44:41.606Z,29.30
2018-08-19T19:47:11.232Z,29.20
2018-08-19T19:49:46.828Z,29.10
2018-08-19T19:52:16.205Z,29.00
2018-08-19T19:54:45.395Z,28.90
2018-08-19T19:57:15.883Z,28.80
2018-08-19T19:59:45.098Z,28.80
2018-08-19T20:02:19.459Z,28.70
2018-08-19T20:04:48.875Z,28.60
2018-08-19T20:07:18.875Z,28.60
2018-08-19T20:09:48.044Z,28.50
2018-08-19T20:12:25.735Z,28.50
2018-08-19T20:14:55.363Z,28.40
2018-08-19T20:17:24.607Z,28.40
2018-08-19T20:19:54.286Z,28.30
2018-08-19T20:22:23.539Z,28.30
2018-08-19T20:24:52.770Z,28.20
2018-08-19T20:27:21.996Z,28.20
2018-08-19T20:29:52.875Z,28.10
2018-08-19T20:32:22.110Z,28.00
2018-08-19T20:34:51.523Z,28.00
2018-08-19T20:37:23.155Z,27.90
2018-08-19T20:39:53.023Z,27.80
2018-08-19T20:42:22.420Z,27.70
2018-08-19T20:44:51.652Z,27.70
2018-08-19T20:47:20.925Z,27.60
2018-08-19T20:49:50.583Z,27.60
2018-08-19T20:52:27.240Z,27.50
2018-08-19T20:54:56.507Z,27.50
2018-08-19T20:57:25.720Z,27.40
2018-08-19T20:59:55.348Z,27.30
2018-08-19T21:02:24.539Z,27.20
2018-08-19T21:04:53.716Z,27.20
2018-08-19T21:07:22.932Z,27.20
2018-08-19T21:09:52.129Z,27.10
2018-08-19T21:12:21.316Z,27.10
2018-08-19T21:14:50.590Z,27.00
2018-08-19T21:17:19.702Z,26.90
2018-08-19T21:19:48.876Z,26.90
2018-08-19T21:22:18.479Z,26.80
2018-08-19T21:24:47.659Z,26.80
2018-08-19T21:27:16.837Z,26.70
2018-08-19T21:29:46.113Z,26.60
2018-08-19T21:32:15.235Z,26.60
2018-08-19T21:34:44.419Z,26.50
2018-08-19T21:37:20.796Z,26.50
2018-08-19T21:39:50.271Z,26.40
2018-08-19T21:42:19.459Z,26.30
2018-08-19T21:44:48.979Z,26.20
2018-08-19T21:47:18.163Z,26.20
2018-08-19T21:49:51.827Z,26.10
2018-08-19T21:52:21.275Z,26.00
2018-08-19T21:54:50.475Z,26.00
2018-08-19T21:57:19.751Z,25.90
2018-08-19T21:59:48.931Z,25.90
2018-08-19T22:02:25.443Z,25.80
2018-08-19T22:04:54.607Z,25.80
2018-08-19T22:07:23.791Z,25.70
2018-08-19T22:09:53.320Z,25.70
2018-08-19T22:12:22.501Z,25.60
2018-08-19T22:14:51.683Z,25.50
2018-08-19T22:17:21.519Z,25.50
2018-08-19T22:19:50.790Z,25.40
2018-08-19T22:22:20.180Z,25.30
2018-08-19T22:24:49.406Z,25.30
2018-08-19T22:27:18.659Z,25.30
2018-08-19T22:29:49.951Z,25.20
2018-08-19T22:32:19.156Z,25.30
2018-08-19T22:34:48.333Z,25.20
2018-08-19T22:37:17.776Z,25.20
2018-08-19T22:39:47.509Z,25.10
2018-08-19T22:42:16.682Z,25.10
2018-08-19T22:44:45.888Z,25.00
2018-08-19T22:47:15.091Z,24.90
2018-08-19T22:49:44.267Z,24.90
2018-08-19T22:52:22.683Z,24.90
2018-08-19T22:54:54.963Z,24.80
2018-08-19T22:57:24.247Z,24.80
2018-08-19T22:59:53.536Z,24.80
2018-08-19T23:02:23.203Z,24.70
2018-08-19T23:04:52.419Z,24.70
2018-08-19T23:07:21.603Z,24.70
2018-08-19T23:09:50.791Z,24.70
2018-08-19T23:12:20.405Z,24.70
2018-08-19T23:15:00.839Z,24.80
2018-08-19T23:17:30.043Z,24.70
2018-08-19T23:19:59.219Z,24.80
2018-08-19T23:22:28.391Z,24.70
2018-08-19T23:24:57.612Z,24.70
2018-08-19T23:27:26.815Z,24.60
2018-08-19T23:29:56.007Z,24.60
2018-08-19T23:32:25.470Z,24.50
2018-08-19T23:34:54.656Z,24.50
2018-08-19T23:37:23.842Z,24.50
2018-08-19T23:39:53.624Z,24.50
2018-08-19T23:42:22.819Z,24.50
2018-08-19T23:44:52.017Z,24.50
2018-08-19T23:47:21.235Z,24.50
2018-08-19T23:49:50.415Z,24.50
2018-08-19T23:52:19.610Z,24.60
2018-08-19T23:54:49.135Z,24.50
2018-08-19T23:57:18.504Z,24.50
2018-08-19T23:59:47.691Z,24.50
